Hovedside
METAR-TAF:

METAR-TAF

Lufthavner :

Kristiansand lufthavn. Kjevik

Kristiansand, Norge

breddegrad: 58-12N, lengdegrad: 008-05E, høyde over havet: 1 m

Gjeldene værobservasjon

Denne rapporten ble laget for 31 minutter siden, klokken 07:20 UTC
Vind 11 kt fra Sørvest
Temperatur 12°C
Luftfuktighet 76%
Trykk 1005 hPa
Sikt 10 km eller mer
Få skyer i en høyde av 2000 ft, Bygeskyer.
Spredte skyer i en høyde av 4000 ft
regnbyger i nærheten

METAR: ENCN 200720Z 23011KT 9999 VCSH FEW020CB SCT040 12/08 Q1005

Tid: 09:51 (07:51 UTC)

Varsel

Denne rapporten ble laget for 2 timer og 51 minutter siden, klokken 05:00 UTC
Varsel gyldig fra 20. klokken 06 UTC til 20. klokken 15 UTC
Vind 15 kt fra Vest-sørvest
Sikt 10 km eller mer
Spredte skyer i en høyde av 3500 ft
lette regnbyger
Sannsynlighet 40% :
Midlertidig
fra 20. klokken 08 UTC til 20. klokken 15 UTC
Vind 15 kt fra Vest-sørvest med vindkast opp mot 25 kt

TAF: ENCN 200500Z 2006/2015 24015KT 9999 -SHRA SCT035 PROB40 TEMPO 2008/2015 24015G25KT

Værobservasjoner og værvarsel for over 4000 flyplasser (METAR- og TAF-rapporter).

Tilgjengelige stasjoner er representert av de røde og gule prikkene på kartet.

Hold musepekeren over prikken for å se navnet på stasjonen.

Klikk så for å se værobservasjoner og -varsler.

For å forandre kartet kan du klikke på den grønne knappen med svart kryss for å zoome inn, på den grønne knappen med strek for å zoome ut, eller på de grønne pilene for å se tilstøtende kart.


METAR-TAF: